createdAt,value
2018-03-06T00:00:26.800Z,46.22
2018-03-06T00:02:55.162Z,49.20
2018-03-06T00:05:23.539Z,53.90
2018-03-06T00:07:51.907Z,48.03
2018-03-06T00:10:20.262Z,50.08
2018-03-06T00:12:48.622Z,49.30
2018-03-06T00:15:16.996Z,49.45
2018-03-06T00:17:45.431Z,49.42
2018-03-06T00:20:13.770Z,47.80
2018-03-06T00:22:42.170Z,49.17
2018-03-06T00:25:10.530Z,46.75
2018-03-06T00:27:38.969Z,49.10
2018-03-06T00:30:07.368Z,49.78
2018-03-06T00:32:35.708Z,50.12
2018-03-06T00:35:04.072Z,48.97
2018-03-06T00:37:32.444Z,47.22
2018-03-06T00:40:00.816Z,50.15
2018-03-06T00:42:29.178Z,51.65
2018-03-06T00:44:57.563Z,48.60
2018-03-06T00:47:25.961Z,50.97
2018-03-06T00:49:54.335Z,50.47
2018-03-06T00:52:22.699Z,51.28
2018-03-06T00:54:51.086Z,48.42
2018-03-06T00:57:19.444Z,47.97
2018-03-06T00:59:47.831Z,48.10
2018-03-06T01:02:16.169Z,48.75
2018-03-06T01:04:44.531Z,46.33
2018-03-06T01:07:12.925Z,42.38
2018-03-06T01:09:41.297Z,46.05
2018-03-06T01:12:09.681Z,47.60
2018-03-06T01:14:38.040Z,48.53
2018-03-06T01:17:06.366Z,45.20
2018-03-06T01:19:34.749Z,50.03
2018-03-06T01:22:03.142Z,53.28
2018-03-06T01:24:31.536Z,53.30
2018-03-06T01:26:59.902Z,58.63
2018-03-06T01:29:28.286Z,53.05
2018-03-06T01:31:56.669Z,56.25
2018-03-06T01:34:25.029Z,54.75
2018-03-06T01:36:53.396Z,47.78
2018-03-06T01:39:21.733Z,52.53
2018-03-06T01:41:50.105Z,51.42
2018-03-06T01:44:18.477Z,56.35
2018-03-06T01:46:46.810Z,50.17
2018-03-06T01:49:15.166Z,53.00
2018-03-06T01:51:55.740Z,49.72
2018-03-06T01:54:24.151Z,54.58
2018-03-06T01:56:52.489Z,49.53
2018-03-06T01:59:20.866Z,52.17
2018-03-06T02:01:49.225Z,52.25
2018-03-06T02:04:17.592Z,51.55
2018-03-06T02:06:45.954Z,55.50
2018-03-06T02:09:14.324Z,50.12
2018-03-06T02:11:42.679Z,55.40
2018-03-06T02:14:11.081Z,52.03
2018-03-06T02:16:39.439Z,48.38
2018-03-06T02:19:07.809Z,53.08
2018-03-06T02:21:36.183Z,55.33
2018-03-06T02:24:04.550Z,49.00
2018-03-06T02:26:32.917Z,49.90
2018-03-06T02:29:01.313Z,52.13
2018-03-06T02:31:29.679Z,49.20
2018-03-06T02:33:58.131Z,48.70
2018-03-06T02:36:26.528Z,53.35
2018-03-06T02:38:54.879Z,53.40
2018-03-06T02:41:23.265Z,49.30
2018-03-06T02:43:51.668Z,47.47
2018-03-06T02:46:20.066Z,50.90
2018-03-06T02:48:48.414Z,52.22
2018-03-06T02:51:16.793Z,52.58
2018-03-06T02:53:45.146Z,49.08
2018-03-06T02:56:13.498Z,50.50
2018-03-06T02:58:41.897Z,49.83
2018-03-06T03:01:10.254Z,51.10
2018-03-06T03:03:38.600Z,51.85
2018-03-06T03:06:06.985Z,52.42
2018-03-06T03:08:35.336Z,49.60
2018-03-06T03:11:03.773Z,49.45
2018-03-06T03:13:32.159Z,51.60
2018-03-06T03:16:00.606Z,51.08
2018-03-06T03:18:28.969Z,48.67
2018-03-06T03:20:57.348Z,51.75
2018-03-06T03:23:25.723Z,50.15
2018-03-06T03:25:54.128Z,51.20
2018-03-06T03:28:22.494Z,51.75
2018-03-06T03:30:50.871Z,50.17
2018-03-06T03:33:19.221Z,54.80
2018-03-06T03:35:47.646Z,51.88
2018-03-06T03:38:16.001Z,52.20
2018-03-06T03:40:44.365Z,53.40
2018-03-06T03:43:12.729Z,53.03
2018-03-06T03:45:41.075Z,51.75
2018-03-06T03:48:09.497Z,51.78
2018-03-06T03:50:37.858Z,48.83
2018-03-06T03:53:06.219Z,53.92
2018-03-06T03:55:34.590Z,52.15
2018-03-06T03:58:02.970Z,55.67
2018-03-06T04:00:31.468Z,51.33
2018-03-06T04:02:59.860Z,54.22
2018-03-06T04:05:28.228Z,54.75
2018-03-06T04:07:56.651Z,55.10
2018-03-06T04:10:24.994Z,52.92
2018-03-06T04:12:53.396Z,53.47
2018-03-06T04:15:21.803Z,51.65
2018-03-06T04:17:50.193Z,54.05
2018-03-06T04:20:18.601Z,53.15
2018-03-06T04:22:46.971Z,52.00
2018-03-06T04:25:15.335Z,52.17
2018-03-06T04:27:43.714Z,48.63
2018-03-06T04:30:12.098Z,51.15
2018-03-06T04:32:40.485Z,53.05
2018-03-06T04:35:08.865Z,51.65
2018-03-06T04:37:37.231Z,50.97
2018-03-06T04:40:05.599Z,51.15
2018-03-06T04:42:33.936Z,52.10
2018-03-06T04:45:02.306Z,53.00
2018-03-06T04:47:30.651Z,50.65
2018-03-06T04:49:59.026Z,50.97
2018-03-06T04:52:27.390Z,54.47
2018-03-06T04:54:55.724Z,52.45
2018-03-06T04:57:24.119Z,52.92
2018-03-06T04:59:52.585Z,54.60
2018-03-06T05:02:20.924Z,49.97
2018-03-06T05:04:49.302Z,52.28
2018-03-06T05:07:17.694Z,48.95
2018-03-06T05:09:46.074Z,50.63
2018-03-06T05:12:14.438Z,55.20
2018-03-06T05:14:42.799Z,53.22
2018-03-06T05:17:11.163Z,49.80
2018-03-06T05:19:39.498Z,50.28
2018-03-06T05:22:07.891Z,50.33
2018-03-06T05:24:36.264Z,51.75
2018-03-06T05:27:04.625Z,54.03
2018-03-06T05:29:33.055Z,52.42
2018-03-06T05:32:01.421Z,50.20
2018-03-06T05:34:29.779Z,52.58
2018-03-06T05:36:58.140Z,52.83
2018-03-06T05:39:26.466Z,52.08
2018-03-06T05:41:54.834Z,50.15
2018-03-06T05:44:23.201Z,52.35
2018-03-06T05:46:51.529Z,56.28
2018-03-06T05:49:19.918Z,53.92
2018-03-06T05:51:48.350Z,52.25
2018-03-06T05:54:16.757Z,55.75
2018-03-06T05:56:45.104Z,54.80
2018-03-06T05:59:13.456Z,52.10
2018-03-06T06:01:41.841Z,54.33
2018-03-06T06:04:10.194Z,54.67
2018-03-06T06:06:38.569Z,54.42
2018-03-06T06:09:06.929Z,54.47
2018-03-06T06:11:35.255Z,53.53
2018-03-06T06:14:03.621Z,55.05
2018-03-06T06:16:31.964Z,52.67
2018-03-06T06:19:00.299Z,52.80
2018-03-06T06:21:28.663Z,53.92
2018-03-06T06:23:57.024Z,51.90
2018-03-06T06:26:25.421Z,55.10
2018-03-06T06:28:53.779Z,50.72
2018-03-06T06:31:22.148Z,52.78
2018-03-06T06:33:50.869Z,53.72
2018-03-06T06:36:19.249Z,52.50
2018-03-06T06:38:47.590Z,46.72
2018-03-06T06:41:15.930Z,51.63
2018-03-06T06:43:44.285Z,54.03
2018-03-06T06:46:12.618Z,54.47
2018-03-06T06:48:40.954Z,59.97
2018-03-06T06:51:09.335Z,55.12
2018-03-06T06:53:37.681Z,55.28
2018-03-06T06:56:06.021Z,55.78
2018-03-06T06:58:34.347Z,58.40
2018-03-06T07:01:03.597Z,52.67
2018-03-06T07:03:31.965Z,56.20
2018-03-06T07:06:00.368Z,52.78
2018-03-06T07:08:28.712Z,53.03
2018-03-06T07:10:57.024Z,55.92
2018-03-06T07:13:25.372Z,54.70
2018-03-06T07:15:53.717Z,55.72
2018-03-06T07:18:22.074Z,54.75
2018-03-06T07:20:50.461Z,54.00
2018-03-06T07:23:18.822Z,52.22
2018-03-06T07:25:47.223Z,50.90
2018-03-06T07:28:15.563Z,51.70
2018-03-06T07:30:43.931Z,51.08
2018-03-06T07:33:12.317Z,52.88
2018-03-06T07:35:40.716Z,53.47
2018-03-06T07:38:09.072Z,50.35
2018-03-06T07:40:37.426Z,53.25
2018-03-06T07:43:05.771Z,53.17
2018-03-06T07:45:34.130Z,52.60
2018-03-06T07:48:02.493Z,53.40
2018-03-06T07:50:30.912Z,53.78
2018-03-06T07:52:59.278Z,50.97
2018-03-06T07:55:27.606Z,52.62
2018-03-06T07:57:55.984Z,45.17
2018-03-06T08:00:24.383Z,42.60
2018-03-06T08:02:52.764Z,42.75
2018-03-06T08:05:21.118Z,43.20
2018-03-06T08:07:49.429Z,42.03
2018-03-06T08:10:17.771Z,36.05
2018-03-06T08:12:46.161Z,34.33
2018-03-06T08:15:14.504Z,30.50
2018-03-06T08:17:42.972Z,29.83
2018-03-06T08:20:11.365Z,36.63
2018-03-06T08:22:39.687Z,35.88
2018-03-06T08:25:08.029Z,39.05
2018-03-06T08:27:36.356Z,35.80
2018-03-06T08:30:04.733Z,41.17
2018-03-06T08:32:33.067Z,43.15
2018-03-06T08:35:01.433Z,43.65
2018-03-06T08:37:29.803Z,42.42
2018-03-06T08:39:58.152Z,43.35
2018-03-06T08:42:26.626Z,42.72
2018-03-06T08:44:54.976Z,44.40
2018-03-06T08:47:23.325Z,39.92
2018-03-06T08:49:51.729Z,38.00
2018-03-06T08:52:20.089Z,43.33
2018-03-06T08:54:48.429Z,38.30
2018-03-06T08:57:16.790Z,37.47
2018-03-06T08:59:45.136Z,40.12
2018-03-06T09:02:13.478Z,37.88
2018-03-06T09:04:41.826Z,34.05
2018-03-06T09:07:10.204Z,36.22
2018-03-06T09:09:38.640Z,35.45
2018-03-06T09:12:06.992Z,36.83
2018-03-06T09:14:35.504Z,33.47
2018-03-06T09:17:04.033Z,33.15
2018-03-06T09:19:32.448Z,34.03
2018-03-06T09:22:00.885Z,32.30
2018-03-06T09:24:29.295Z,32.80
2018-03-06T09:26:57.717Z,32.43
2018-03-06T09:29:26.105Z,31.43
2018-03-06T09:31:54.453Z,31.83
2018-03-06T09:34:22.878Z,31.83
2018-03-06T09:36:51.225Z,32.00
2018-03-06T09:39:19.544Z,31.30
2018-03-06T09:41:47.901Z,31.67
2018-03-06T09:44:16.249Z,31.63
2018-03-06T09:46:44.579Z,33.17
2018-03-06T09:49:12.919Z,29.47
2018-03-06T09:51:41.277Z,28.17
2018-03-06T09:54:09.780Z,35.07
2018-03-06T09:56:38.192Z,28.53
2018-03-06T09:59:06.635Z,27.50
2018-03-06T10:01:35.030Z,29.30
2018-03-06T10:04:03.418Z,31.80
2018-03-06T10:06:31.855Z,33.33
2018-03-06T10:09:00.192Z,29.40
2018-03-06T10:11:28.597Z,27.77
2018-03-06T10:13:56.951Z,28.30
2018-03-06T10:16:25.328Z,28.97
2018-03-06T10:18:53.666Z,30.90
2018-03-06T10:21:22.080Z,29.80
2018-03-06T10:23:50.487Z,32.07
2018-03-06T10:26:18.947Z,35.07
2018-03-06T10:28:47.510Z,36.80
2018-03-06T10:31:15.847Z,35.07
2018-03-06T10:33:44.173Z,35.20
2018-03-06T10:36:12.522Z,35.90
2018-03-06T10:38:40.849Z,37.33
2018-03-06T10:41:09.233Z,40.30
2018-03-06T10:43:37.595Z,43.17
2018-03-06T10:46:05.935Z,38.90
2018-03-06T10:48:34.396Z,39.33
2018-03-06T10:51:02.820Z,35.50
2018-03-06T10:53:31.279Z,40.20
2018-03-06T10:55:59.741Z,37.07
2018-03-06T10:58:28.215Z,38.57
2018-03-06T11:00:56.648Z,34.00
2018-03-06T11:03:25.128Z,34.33
2018-03-06T11:05:53.523Z,36.83
2018-03-06T11:08:21.938Z,32.30
2018-03-06T11:10:50.315Z,32.43
2018-03-06T11:13:18.644Z,33.43
2018-03-06T11:15:47.059Z,31.63
2018-03-06T11:18:15.529Z,34.80
2018-03-06T11:20:44.012Z,33.87
2018-03-06T11:23:12.398Z,29.30
2018-03-06T11:25:40.790Z,30.80
2018-03-06T11:28:09.226Z,33.90
2018-03-06T11:30:37.624Z,33.73
2018-03-06T11:33:06.042Z,32.90
2018-03-06T11:35:34.390Z,28.70
2018-03-06T11:38:02.868Z,32.20
2018-03-06T11:40:31.264Z,30.40
2018-03-06T11:42:59.689Z,29.10
2018-03-06T11:45:28.021Z,29.63
2018-03-06T11:47:56.377Z,28.70
2018-03-06T11:50:24.786Z,30.70
2018-03-06T11:52:53.129Z,29.50
2018-03-06T11:55:21.511Z,27.47
2018-03-06T11:57:49.878Z,30.60
2018-03-06T12:00:18.352Z,28.50
2018-03-06T12:02:46.763Z,27.77
2018-03-06T12:05:15.105Z,28.00
2018-03-06T12:07:43.464Z,27.40
2018-03-06T12:10:11.808Z,27.10
2018-03-06T12:12:40.150Z,28.73
2018-03-06T12:15:08.600Z,28.50
2018-03-06T12:17:36.934Z,27.30
2018-03-06T12:20:05.363Z,28.40
2018-03-06T12:22:33.682Z,29.87
2018-03-06T12:25:02.207Z,30.00
2018-03-06T12:27:30.560Z,28.80
2018-03-06T12:29:58.885Z,32.43
2018-03-06T12:32:27.205Z,29.27
2018-03-06T12:34:55.539Z,31.47
2018-03-06T12:37:23.865Z,29.67
2018-03-06T12:39:52.182Z,32.83
2018-03-06T12:42:20.529Z,31.50
2018-03-06T12:44:48.897Z,30.60
2018-03-06T12:47:17.221Z,31.77
2018-03-06T12:49:46.270Z,32.70
2018-03-06T12:52:14.662Z,32.30
2018-03-06T12:54:43.091Z,31.20
2018-03-06T12:57:11.403Z,30.83
2018-03-06T12:59:39.749Z,31.70
2018-03-06T13:02:08.120Z,32.67
2018-03-06T13:04:36.468Z,33.20
2018-03-06T13:07:04.800Z,34.80
2018-03-06T13:09:33.139Z,33.97
2018-03-06T13:12:01.469Z,31.10
2018-03-06T13:14:29.828Z,28.80
2018-03-06T13:16:58.152Z,29.73
2018-03-06T13:19:26.480Z,29.50
2018-03-06T13:21:54.851Z,30.17
2018-03-06T13:24:23.207Z,28.13
2018-03-06T13:26:51.564Z,26.27
2018-03-06T13:29:19.932Z,27.10
2018-03-06T13:31:48.270Z,29.63
2018-03-06T13:34:16.622Z,28.97
2018-03-06T13:36:44.958Z,30.27
2018-03-06T13:39:13.408Z,27.90
2018-03-06T13:41:41.744Z,29.60
2018-03-06T13:44:10.078Z,30.80
2018-03-06T13:46:38.415Z,30.73
2018-03-06T13:49:06.744Z,29.13
2018-03-06T13:51:35.223Z,30.53
2018-03-06T13:54:03.609Z,29.73
2018-03-06T13:56:31.973Z,30.03
2018-03-06T13:59:00.343Z,29.65
2018-03-06T14:01:28.706Z,28.57
2018-03-06T14:03:57.060Z,27.60
2018-03-06T14:06:25.461Z,30.10
2018-03-06T14:08:53.832Z,30.77
2018-03-06T14:11:22.193Z,31.03
2018-03-06T14:13:50.560Z,30.30
2018-03-06T14:16:18.926Z,31.17
2018-03-06T14:18:47.328Z,29.73
2018-03-06T14:21:15.689Z,32.67
2018-03-06T14:23:44.081Z,33.38
2018-03-06T14:26:12.480Z,31.92
2018-03-06T14:28:40.801Z,32.30
2018-03-06T14:31:09.142Z,30.70
2018-03-06T14:33:37.516Z,28.90
2018-03-06T14:36:05.892Z,36.72
2018-03-06T14:38:34.238Z,30.00
2018-03-06T14:41:02.626Z,30.52
2018-03-06T14:43:30.990Z,31.52
2018-03-06T14:45:59.431Z,31.85
2018-03-06T14:48:27.763Z,32.35
2018-03-06T14:50:56.129Z,33.58
2018-03-06T14:53:24.466Z,34.30
2018-03-06T14:55:52.859Z,33.83
2018-03-06T14:58:21.231Z,31.55
2018-03-06T15:00:49.568Z,31.70
2018-03-06T15:03:17.931Z,33.47
2018-03-06T15:05:46.284Z,32.17
2018-03-06T15:08:14.626Z,32.80
2018-03-06T15:10:42.971Z,32.95
2018-03-06T15:13:11.338Z,30.25
2018-03-06T15:15:39.658Z,34.30
2018-03-06T15:18:08.048Z,30.42
2018-03-06T15:20:36.411Z,31.33
2018-03-06T15:23:04.755Z,30.25
2018-03-06T15:25:33.098Z,30.60
2018-03-06T15:28:01.433Z,33.58
2018-03-06T15:30:29.795Z,33.40
2018-03-06T15:32:58.159Z,31.58
2018-03-06T15:35:26.515Z,31.65
2018-03-06T15:37:54.877Z,31.52
2018-03-06T15:40:23.202Z,32.22
2018-03-06T15:42:51.591Z,34.58
2018-03-06T15:45:19.933Z,31.95
2018-03-06T15:47:48.274Z,33.03
2018-03-06T15:50:16.612Z,33.78
2018-03-06T15:52:44.938Z,31.20
2018-03-06T15:55:13.285Z,34.63
2018-03-06T15:57:41.659Z,33.55
2018-03-06T16:00:10.013Z,32.88
2018-03-06T16:02:38.376Z,32.25
2018-03-06T16:05:06.700Z,31.58
2018-03-06T16:07:35.065Z,32.70
2018-03-06T16:10:03.483Z,35.85
2018-03-06T16:12:31.842Z,38.72
2018-03-06T16:15:00.258Z,39.40
2018-03-06T16:17:28.591Z,41.33
2018-03-06T16:19:56.973Z,35.92
2018-03-06T16:22:25.366Z,39.00
2018-03-06T16:24:53.762Z,40.45
2018-03-06T16:27:22.107Z,38.67
2018-03-06T16:29:50.492Z,42.00
2018-03-06T16:32:18.880Z,37.80
2018-03-06T16:34:47.220Z,40.58
2018-03-06T16:37:15.606Z,41.80
2018-03-06T16:39:43.965Z,45.08
2018-03-06T16:42:12.308Z,42.60
2018-03-06T16:44:40.673Z,45.95
2018-03-06T16:47:09.169Z,46.67
2018-03-06T16:49:37.546Z,45.15
2018-03-06T16:52:05.881Z,47.88
2018-03-06T16:54:34.246Z,49.92
2018-03-06T16:57:02.578Z,49.47
2018-03-06T16:59:30.959Z,51.13
2018-03-06T17:01:59.351Z,51.90
2018-03-06T17:04:27.673Z,53.80
2018-03-06T17:06:55.987Z,52.13
2018-03-06T17:09:24.369Z,55.75
2018-03-06T17:11:52.701Z,51.10
2018-03-06T17:14:21.107Z,52.50
2018-03-06T17:16:49.546Z,54.00
2018-03-06T17:19:17.905Z,55.58
2018-03-06T17:21:46.323Z,58.45
2018-03-06T17:24:14.677Z,54.03
2018-03-06T17:26:43.034Z,53.55
2018-03-06T17:29:11.450Z,54.45
2018-03-06T17:31:39.825Z,53.35
2018-03-06T17:34:08.183Z,47.20
2018-03-06T17:36:36.620Z,47.33
2018-03-06T17:39:04.996Z,52.47
2018-03-06T17:41:33.369Z,55.85
2018-03-06T17:44:01.730Z,57.05
2018-03-06T17:46:31.544Z,55.60
2018-03-06T17:48:59.974Z,59.22
2018-03-06T17:51:28.325Z,58.10
2018-03-06T17:53:56.692Z,59.63
2018-03-06T17:56:25.073Z,55.30
2018-03-06T17:58:53.469Z,55.70
2018-03-06T18:01:21.856Z,57.42
2018-03-06T18:03:50.267Z,57.85
2018-03-06T18:06:18.599Z,58.20
2018-03-06T18:08:47.024Z,53.22
2018-03-06T18:11:15.389Z,51.15
2018-03-06T18:13:43.738Z,58.72
2018-03-06T18:16:12.163Z,54.67
2018-03-06T18:18:40.512Z,57.55
2018-03-06T18:21:08.922Z,57.22
2018-03-06T18:23:37.327Z,55.20
2018-03-06T18:26:05.721Z,58.05
2018-03-06T18:28:34.044Z,59.50
2018-03-06T18:31:02.474Z,61.90
2018-03-06T18:33:30.838Z,64.82
2018-03-06T18:35:59.266Z,60.60
2018-03-06T18:38:27.617Z,61.05
2018-03-06T18:40:55.967Z,57.97
2018-03-06T18:43:24.380Z,56.33
2018-03-06T18:45:52.766Z,55.67
2018-03-06T18:48:21.090Z,56.20
2018-03-06T18:51:01.647Z,56.58
2018-03-06T18:53:30.027Z,53.50
2018-03-06T18:55:58.455Z,55.15
2018-03-06T18:58:26.885Z,53.70
2018-03-06T19:01:07.362Z,54.03
2018-03-06T19:03:47.810Z,54.22
2018-03-06T19:06:23.332Z,56.08
2018-03-06T19:08:51.712Z,57.00
2018-03-06T19:11:20.065Z,59.10
2018-03-06T19:13:48.419Z,59.35
2018-03-06T19:16:16.742Z,54.97
2018-03-06T19:18:45.155Z,54.97
2018-03-06T19:21:13.697Z,56.78
2018-03-06T19:23:42.095Z,54.95
2018-03-06T19:26:10.530Z,56.92
2018-03-06T19:28:38.893Z,55.83
2018-03-06T19:31:07.249Z,57.60
2018-03-06T19:33:35.769Z,57.75
2018-03-06T19:36:04.194Z,54.90
2018-03-06T19:38:32.512Z,59.28
2018-03-06T19:41:01.122Z,56.90
2018-03-06T19:43:29.803Z,54.40
2018-03-06T19:45:58.551Z,54.88
2018-03-06T19:48:27.204Z,51.50
2018-03-06T19:50:55.867Z,50.78
2018-03-06T19:53:24.640Z,51.85
2018-03-06T19:55:53.027Z,55.45
2018-03-06T19:58:21.455Z,54.55
2018-03-06T20:00:49.819Z,53.63
2018-03-06T20:03:18.187Z,53.03
2018-03-06T20:05:46.846Z,55.47
2018-03-06T20:08:15.565Z,54.35
2018-03-06T20:10:44.215Z,49.17
2018-03-06T20:13:12.602Z,51.72
2018-03-06T20:15:40.959Z,47.50
2018-03-06T20:18:09.868Z,49.92
2018-03-06T20:20:38.289Z,47.53
2018-03-06T20:23:06.874Z,45.12
2018-03-06T20:25:41.504Z,44.22
2018-03-06T20:28:09.884Z,42.38
2018-03-06T20:30:44.398Z,47.03
2018-03-06T20:33:12.774Z,45.90
2018-03-06T20:35:41.369Z,41.37
2018-03-06T20:38:15.861Z,42.53
2018-03-06T20:40:44.213Z,38.28
2018-03-06T20:43:12.529Z,38.20
2018-03-06T20:45:46.824Z,39.83
2018-03-06T20:48:15.234Z,38.60
2018-03-06T20:50:43.667Z,39.05
2018-03-06T20:53:17.998Z,40.25
2018-03-06T20:55:46.381Z,38.15
2018-03-06T20:58:14.784Z,37.58
2018-03-06T21:00:43.170Z,40.12
2018-03-06T21:03:11.517Z,41.40
2018-03-06T21:05:40.383Z,42.22
2018-03-06T21:08:08.778Z,42.10
2018-03-06T21:10:37.160Z,41.75
2018-03-06T21:13:05.510Z,39.63
2018-03-06T21:15:33.850Z,38.17
2018-03-06T21:18:02.203Z,40.60
2018-03-06T21:20:30.542Z,41.30
2018-03-06T21:22:58.884Z,41.20
2018-03-06T21:25:27.227Z,42.30
2018-03-06T21:27:55.581Z,39.88
2018-03-06T21:30:23.946Z,41.53
2018-03-06T21:32:52.270Z,41.17
2018-03-06T21:35:20.670Z,39.78
2018-03-06T21:37:49.013Z,41.45
2018-03-06T21:40:17.382Z,37.95
2018-03-06T21:42:45.726Z,41.58
2018-03-06T21:45:14.060Z,40.95
2018-03-06T21:47:42.407Z,43.00
2018-03-06T21:50:10.850Z,41.15
2018-03-06T21:52:39.182Z,37.72
2018-03-06T21:55:07.596Z,41.30
2018-03-06T21:57:36.085Z,43.00
2018-03-06T22:00:04.478Z,38.25
2018-03-06T22:02:32.864Z,38.25
2018-03-06T22:05:01.238Z,38.22
2018-03-06T22:07:29.583Z,39.30
2018-03-06T22:09:57.960Z,40.88
2018-03-06T22:12:26.365Z,41.25
2018-03-06T22:14:54.751Z,41.92
2018-03-06T22:17:23.149Z,42.30
2018-03-06T22:19:51.558Z,41.72
2018-03-06T22:22:19.928Z,42.83
2018-03-06T22:24:48.265Z,39.60
2018-03-06T22:27:16.673Z,41.08
2018-03-06T22:29:45.139Z,40.08
2018-03-06T22:32:13.471Z,37.88
2018-03-06T22:34:41.828Z,38.40
2018-03-06T22:37:10.329Z,40.83
2018-03-06T22:39:38.732Z,42.53
2018-03-06T22:42:07.098Z,40.55
2018-03-06T22:44:35.518Z,40.97
2018-03-06T22:47:03.932Z,43.03
2018-03-06T22:49:32.314Z,43.50
2018-03-06T22:52:00.694Z,43.00
2018-03-06T22:54:29.089Z,45.65
2018-03-06T22:56:57.459Z,43.47
2018-03-06T22:59:25.959Z,39.92
2018-03-06T23:01:54.392Z,40.28
2018-03-06T23:04:22.720Z,45.45
2018-03-06T23:06:51.085Z,43.10
2018-03-06T23:09:19.454Z,42.15
2018-03-06T23:11:47.789Z,44.30
2018-03-06T23:14:16.166Z,44.90
2018-03-06T23:16:44.540Z,43.85
2018-03-06T23:19:12.914Z,44.85
2018-03-06T23:21:41.323Z,43.22
2018-03-06T23:24:09.713Z,41.80
2018-03-06T23:26:38.068Z,44.42
2018-03-06T23:29:06.605Z,42.03
2018-03-06T23:31:35.088Z,47.50
2018-03-06T23:34:03.448Z,45.63
2018-03-06T23:36:31.791Z,47.65
2018-03-06T23:39:00.129Z,42.47
2018-03-06T23:41:28.512Z,47.08
2018-03-06T23:43:56.870Z,50.15
2018-03-06T23:46:25.205Z,47.05
2018-03-06T23:48:53.606Z,46.28
2018-03-06T23:51:21.957Z,44.67
2018-03-06T23:53:50.317Z,43.35
2018-03-06T23:56:18.689Z,47.95
2018-03-06T23:58:47.014Z,46.67
